Time;durP1;ratioP1;P1;durP2;ratioP2;P2;SDS_P1;SDS_P2;PMS_P1;PMS_P2;Temp;Humidity;BMP_temperature;BMP_pressure;BME280_temperature;BME280_humidity;BME280_pressure;Samples;Min_cycle;Max_cycle;Signal;HPM_P1;HPM_P2
2022/08/24 00:02:21;;;;;;;2.63;1.17;;;24.30;68.50;;;;;;5024998;28;20107;-58
2022/08/24 00:04:48;;;;;;;3.00;1.25;;;24.30;68.50;;;;;;5027521;28;20059;-58
2022/08/24 00:07:15;;;;;;;3.08;1.25;;;24.30;68.50;;;;;;5026822;28;20037;-59
2022/08/24 00:09:42;;;;;;;6.40;1.40;;;24.30;68.40;;;;;;5026850;28;20029;-58
2022/08/24 00:12:07;;;;;;;4.70;1.65;;;24.30;68.50;;;;;;5024730;28;20663;-58
2022/08/24 00:14:33;;;;;;;5.35;1.40;;;24.30;68.50;;;;;;5027866;28;20063;-58
2022/08/24 00:16:59;;;;;;;3.38;1.38;;;24.30;68.50;;;;;;5026590;28;20021;-58
2022/08/24 00:19:24;;;;;;;3.25;1.33;;;24.20;68.50;;;;;;5025646;28;20409;-58
2022/08/24 00:21:51;;;;;;;3.17;1.20;;;24.20;68.40;;;;;;5026498;28;20364;-58
2022/08/24 00:24:17;;;;;;;2.65;1.27;;;24.30;68.50;;;;;;5027049;28;20116;-58
2022/08/24 00:26:44;;;;;;;3.15;1.20;;;24.20;68.40;;;;;;5024260;28;20529;-59
2022/08/24 00:29:11;;;;;;;3.67;1.30;;;24.20;68.50;;;;;;5027558;28;20486;-58
2022/08/24 00:31:37;;;;;;;2.50;1.13;;;24.20;68.40;;;;;;5027460;28;20032;-58
2022/08/24 00:34:03;;;;;;;3.40;1.23;;;24.30;68.50;;;;;;5026465;28;20033;-58
2022/08/24 00:36:28;;;;;;;3.40;1.20;;;24.20;68.40;;;;;;5027854;28;20033;-58
2022/08/24 00:38:54;;;;;;;2.00;1.20;;;24.20;68.40;;;;;;5027786;28;20033;-58
2022/08/24 00:41:21;;;;;;;4.50;1.05;;;24.20;68.40;;;;;;5026796;28;20025;-58
2022/08/24 00:43:53;;;;;;;3.10;1.27;;;24.20;68.40;;;;;;5027130;28;20300;-58
2022/08/24 00:46:26;;;;;;;3.78;1.40;;;24.20;68.40;;;;;;5024097;28;20124;-58
2022/08/24 00:49:01;;;;;;;2.15;0.98;;;24.20;68.40;;;;;;5023995;28;20393;-58
2022/08/24 00:51:35;;;;;;;3.33;1.17;;;24.20;68.40;;;;;;5026379;28;20018;-58
2022/08/24 00:54:07;;;;;;;3.05;1.20;;;24.20;68.40;;;;;;5027273;28;20037;-58
2022/08/24 00:56:36;;;;;;;2.53;1.25;;;24.20;68.40;;;;;;5036923;28;20028;-59
2022/08/24 00:59:06;;;;;;;2.85;1.30;;;24.10;68.40;;;;;;5026939;28;20429;-58
2022/08/24 01:01:32;;;;;;;4.28;1.25;;;24.10;68.40;;;;;;5025941;28;20061;-59
2022/08/24 01:03:58;;;;;;;3.58;1.40;;;24.10;68.40;;;;;;5026362;28;20163;-58
2022/08/24 01:06:24;;;;;;;3.08;1.05;;;24.10;68.50;;;;;;5026761;28;20444;-58
2022/08/24 01:08:50;;;;;;;1.90;1.10;;;24.10;68.40;;;;;;5026641;28;20040;-58
2022/08/24 01:11:20;;;;;;;2.25;1.10;;;24.10;68.40;;;;;;5027481;28;20387;-58
2022/08/24 01:13:46;;;;;;;3.45;1.20;;;24.10;68.40;;;;;;5025921;28;20064;-58
2022/08/24 01:16:13;;;;;;;2.58;1.20;;;24.10;68.40;;;;;;5026224;28;20029;-58
2022/08/24 01:18:51;;;;;;;2.72;1.13;;;24.10;68.40;;;;;;5025083;28;20017;-58
2022/08/24 01:21:18;;;;;;;2.95;1.10;;;24.10;68.40;;;;;;5024770;28;20385;-58
2022/08/24 01:23:53;;;;;;;4.80;1.23;;;24.10;68.40;;;;;;5026082;28;20017;-58
2022/08/24 01:26:32;;;;;;;;;;;24.10;68.40;;;;;;5024702;28;20037;-58
2022/08/24 01:29:13;;;;;;;2.95;1.20;;;24.10;68.40;;;;;;5024543;28;20365;-58
2022/08/24 01:31:38;;;;;;;2.92;1.10;;;24.10;68.40;;;;;;5033243;28;20022;-58
2022/08/24 01:34:04;;;;;;;2.13;0.95;;;24.00;68.40;;;;;;5026317;28;20087;-58
2022/08/24 01:36:35;;;;;;;2.97;1.10;;;24.00;68.40;;;;;;5027033;28;20506;-59
2022/08/24 01:39:10;;;;;;;3.95;1.20;;;24.00;68.30;;;;;;5025790;28;20026;-58
2022/08/24 01:41:36;;;;;;;;;;;24.00;68.30;;;;;;5037689;28;20033;-58
2022/08/24 01:44:02;;;;;;;5.60;1.25;;;24.00;68.40;;;;;;5025391;28;19913;-58
2022/08/24 01:46:27;;;;;;;5.38;1.20;;;24.00;68.40;;;;;;5027757;28;20022;-58
2022/08/24 01:48:54;;;;;;;3.03;1.08;;;24.00;68.40;;;;;;5023606;28;20017;-58
2022/08/24 01:51:20;;;;;;;3.13;1.20;;;24.00;68.50;;;;;;5006603;28;20523;-58
2022/08/24 01:53:45;;;;;;;2.28;1.10;;;24.00;68.50;;;;;;5026432;28;20164;-58
2022/08/24 01:56:11;;;;;;;2.65;1.25;;;24.00;68.40;;;;;;5026758;28;20025;-58
2022/08/24 01:58:43;;;;;;;2.78;1.30;;;24.00;68.40;;;;;;5025035;28;20103;-58
2022/08/24 02:01:08;;;;;;;3.55;1.27;;;24.00;68.50;;;;;;5025837;28;20029;-58
2022/08/24 02:03:34;;;;;;;3.05;1.40;;;24.00;68.50;;;;;;5025687;28;20048;-58
2022/08/24 02:06:00;;;;;;;2.92;1.23;;;24.00;68.50;;;;;;5025675;28;20060;-58
2022/08/24 02:08:26;;;;;;;2.60;1.13;;;23.90;68.50;;;;;;5025465;28;20037;-58
2022/08/24 02:10:52;;;;;;;3.63;1.30;;;24.00;68.50;;;;;;5026090;28;20036;-58
2022/08/24 02:13:17;;;;;;;2.00;1.20;;;23.90;68.40;;;;;;5026019;28;20026;-58
2022/08/24 02:15:43;;;;;;;1.55;1.10;;;23.90;68.50;;;;;;5025417;28;20044;-58
2022/08/24 02:18:10;;;;;;;2.92;1.27;;;23.90;68.50;;;;;;5025543;28;20038;-58
2022/08/24 02:20:36;;;;;;;2.67;1.17;;;23.90;69.40;;;;;;5025935;28;20061;-58
2022/08/24 02:23:02;;;;;;;1.38;1.00;;;23.90;68.50;;;;;;5025633;28;20524;-58
2022/08/24 02:25:29;;;;;;;3.13;1.00;;;23.90;68.50;;;;;;5024533;28;20029;-58
2022/08/24 02:27:58;;;;;;;2.97;1.00;;;23.90;69.00;;;;;;5026103;28;20056;-58
2022/08/24 02:30:25;;;;;;;2.25;1.20;;;23.90;68.40;;;;;;5026185;28;20494;-59
2022/08/24 02:32:50;;;;;;;1.30;1.00;;;23.90;68.40;;;;;;5025484;28;20034;-59
2022/08/24 02:35:16;;;;;;;1.45;0.95;;;23.90;68.40;;;;;;5025063;28;20064;-58
2022/08/24 02:37:42;;;;;;;2.25;1.10;;;23.90;68.40;;;;;;5025618;28;20029;-58
2022/08/24 02:40:08;;;;;;;3.17;1.17;;;23.90;68.50;;;;;;5024256;28;20029;-58
2022/08/24 02:42:35;;;;;;;1.65;1.20;;;23.80;68.40;;;;;;5025956;28;20029;-59
2022/08/24 02:45:01;;;;;;;3.35;1.00;;;23.80;68.40;;;;;;5025285;28;20029;-58
2022/08/24 02:47:27;;;;;;;3.40;1.30;;;23.80;68.40;;;;;;5024714;28;20505;-58
2022/08/24 02:49:52;;;;;;;2.88;1.20;;;23.80;68.40;;;;;;5024061;28;20036;-58
2022/08/24 02:52:18;;;;;;;4.13;1.10;;;23.80;68.30;;;;;;5024759;28;20056;-58
2022/08/24 02:54:43;;;;;;;1.83;0.80;;;23.80;68.40;;;;;;5025771;28;20041;-58
2022/08/24 02:57:09;;;;;;;2.30;1.15;;;23.80;68.30;;;;;;5024549;28;20025;-58
2022/08/24 02:59:35;;;;;;;3.47;0.90;;;23.80;68.30;;;;;;5023937;28;20112;-58
2022/08/24 03:02:00;;;;;;;2.97;1.08;;;23.80;68.30;;;;;;5025424;28;20072;-58
2022/08/24 03:04:26;;;;;;;2.67;1.00;;;23.80;68.30;;;;;;5025295;28;20079;-58
2022/08/24 03:06:52;;;;;;;3.72;1.23;;;23.80;68.50;;;;;;5025490;28;20101;-58
2022/08/24 03:09:18;;;;;;;2.42;1.00;;;23.80;68.30;;;;;;5025570;28;20033;-58
2022/08/24 03:11:43;;;;;;;3.13;1.30;;;23.80;68.30;;;;;;5025382;28;20565;-58
2022/08/24 03:14:09;;;;;;;2.33;1.20;;;23.80;68.30;;;;;;5024391;28;20069;-58
2022/08/24 03:16:35;;;;;;;2.80;1.00;;;23.80;68.30;;;;;;5025514;28;20051;-58
2022/08/24 03:19:01;;;;;;;2.22;0.95;;;23.70;68.20;;;;;;5024591;28;20064;-59
2022/08/24 03:21:26;;;;;;;2.70;1.10;;;23.70;68.20;;;;;;5025708;28;20065;-58
2022/08/24 03:23:52;;;;;;;2.22;0.88;;;23.70;68.20;;;;;;5025772;28;20512;-59
2022/08/24 03:26:18;;;;;;;1.45;0.80;;;23.80;68.30;;;;;;5024859;28;20557;-58
2022/08/24 03:28:43;;;;;;;2.05;1.02;;;23.70;68.20;;;;;;5024584;28;20044;-58
2022/08/24 03:31:09;;;;;;;2.42;1.15;;;23.70;68.20;;;;;;5028104;28;20041;-58
2022/08/24 03:33:35;;;;;;;4.35;1.20;;;23.70;69.20;;;;;;5029877;28;20027;-58
2022/08/24 03:36:00;;;;;;;1.85;1.00;;;23.70;68.20;;;;;;5029025;28;20120;-58
2022/08/24 03:38:26;;;;;;;2.67;1.10;;;23.70;68.20;;;;;;5027002;28;20060;-58
2022/08/24 03:40:52;;;;;;;2.50;1.05;;;23.70;68.20;;;;;;5028818;28;20041;-58
2022/08/24 03:46:27;;;;;;;1.60;1.00;;;23.70;68.20;;;;;;5023458;28;20029;-58
2022/08/24 03:48:56;;;;;;;1.20;0.90;;;23.70;68.20;;;;;;5019332;28;20120;-59
2022/08/24 03:51:23;;;;;;;2.35;1.00;;;23.70;68.20;;;;;;5017888;28;20112;-58
2022/08/24 03:53:50;;;;;;;2.60;0.98;;;23.70;68.10;;;;;;5014558;28;20807;-58
2022/08/24 03:56:17;;;;;;;2.60;1.10;;;23.70;68.20;;;;;;5014141;28;20109;-58
2022/08/24 03:58:43;;;;;;;3.28;1.30;;;23.70;68.10;;;;;;5016364;28;20034;-58
2022/08/24 04:01:08;;;;;;;2.13;0.90;;;23.70;68.10;;;;;;5018222;28;20435;-58
2022/08/24 04:03:39;;;;;;;1.27;0.90;;;23.70;68.10;;;;;;5021431;28;20072;-58
2022/08/24 04:06:05;;;;;;;1.83;0.90;;;23.70;68.10;;;;;;5017147;28;20033;-58
2022/08/24 04:08:31;;;;;;;2.28;1.20;;;23.70;68.10;;;;;;5014937;28;20029;-58
2022/08/24 04:10:57;;;;;;;2.55;1.10;;;23.60;68.10;;;;;;5020183;28;20049;-58
2022/08/24 04:13:23;;;;;;;1.50;1.08;;;23.60;68.10;;;;;;5017688;28;20026;-58
2022/08/24 04:15:51;;;;;;;2.30;1.00;;;23.60;68.10;;;;;;5019625;28;20053;-58
2022/08/24 04:18:17;;;;;;;2.13;1.10;;;23.60;68.10;;;;;;5027480;28;20470;-58
2022/08/24 04:20:43;;;;;;;1.20;0.88;;;23.60;68.10;;;;;;5027843;28;20083;-58
2022/08/24 04:23:09;;;;;;;1.67;0.80;;;23.60;68.00;;;;;;5026529;28;20017;-58
2022/08/24 04:25:43;;;;;;;2.55;1.10;;;23.60;68.00;;;;;;5028265;28;20029;-58
2022/08/24 04:28:09;;;;;;;1.63;0.90;;;23.60;68.10;;;;;;5027768;28;20033;-59
2022/08/24 04:30:34;;;;;;;1.27;0.90;;;23.60;68.10;;;;;;5022511;28;20533;-58
2022/08/24 04:33:01;;;;;;;2.30;1.00;;;23.60;68.00;;;;;;5008918;28;20025;-58
2022/08/24 04:35:26;;;;;;;2.05;0.90;;;23.60;68.00;;;;;;5026942;28;20061;-58
2022/08/24 04:37:52;;;;;;;1.70;1.10;;;23.60;68.10;;;;;;5027591;28;20033;-58
2022/08/24 04:40:19;;;;;;;2.50;1.30;;;23.60;68.10;;;;;;5027426;28;20037;-58
2022/08/24 04:43:00;;;;;;;1.85;0.77;;;23.60;68.00;;;;;;5006260;28;20077;-59
2022/08/24 04:45:26;;;;;;;2.15;0.95;;;23.60;68.00;;;;;;5028228;28;20110;-58
2022/08/24 04:47:52;;;;;;;2.80;1.10;;;23.60;68.00;;;;;;5025905;28;20026;-58
2022/08/24 04:50:18;;;;;;;2.13;1.10;;;23.50;68.00;;;;;;5025911;28;20041;-58
2022/08/24 04:52:44;;;;;;;2.33;1.00;;;23.50;68.00;;;;;;5027359;28;20045;-59
2022/08/24 04:55:09;;;;;;;1.58;1.00;;;23.50;67.90;;;;;;5026595;28;20033;-58
2022/08/24 04:57:38;;;;;;;1.30;0.88;;;23.50;67.90;;;;;;5025606;28;20090;-58
2022/08/24 05:00:05;;;;;;;2.67;1.10;;;23.50;68.00;;;;;;5026902;28;20030;-59
2022/08/24 05:02:31;;;;;;;2.10;1.00;;;23.50;68.00;;;;;;5027920;28;20662;-58
2022/08/24 05:04:57;;;;;;;1.48;0.93;;;23.50;67.90;;;;;;5023107;28;20065;-58
2022/08/24 05:07:23;;;;;;;1.50;0.88;;;23.50;68.10;;;;;;5024907;28;20038;-58
2022/08/24 05:09:49;;;;;;;2.08;1.15;;;23.50;68.00;;;;;;5026915;28;20466;-59
2022/08/24 05:12:14;;;;;;;1.98;1.00;;;23.50;68.00;;;;;;5027042;28;20121;-58
2022/08/24 05:14:40;;;;;;;1.30;1.00;;;23.50;68.00;;;;;;5022095;28;20125;-58
2022/08/24 05:17:06;;;;;;;1.92;1.02;;;23.50;68.00;;;;;;5030277;28;20028;-58
2022/08/24 05:19:32;;;;;;;1.48;0.80;;;23.50;68.00;;;;;;5026612;28;20425;-58
2022/08/24 05:21:59;;;;;;;2.58;0.90;;;23.50;68.00;;;;;;5027082;28;20037;-58
2022/08/24 05:24:25;;;;;;;2.10;0.93;;;23.50;68.00;;;;;;5030072;28;20021;-58
2022/08/24 05:26:51;;;;;;;1.33;0.70;;;23.50;68.00;;;;;;5031115;28;20036;-58
2022/08/24 05:29:18;;;;;;;2.00;0.93;;;23.50;68.00;;;;;;5027589;28;20033;-58
2022/08/24 05:31:44;;;;;;;2.45;0.82;;;23.50;68.00;;;;;;5025515;28;20037;-58
2022/08/24 05:34:11;;;;;;;1.70;0.90;;;23.50;68.00;;;;;;5028274;28;20520;-59
2022/08/24 05:36:37;;;;;;;2.40;0.82;;;23.50;68.00;;;;;;5026210;28;20038;-58
2022/08/24 05:39:08;;;;;;;1.38;0.90;;;23.40;67.90;;;;;;5025663;28;20117;-58
2022/08/24 05:41:34;;;;;;;1.42;1.00;;;23.40;67.90;;;;;;5025494;28;20022;-58
2022/08/24 05:44:00;;;;;;;1.83;0.82;;;23.40;68.00;;;;;;5026774;28;20030;-59
2022/08/24 05:46:26;;;;;;;0.73;0.73;;;23.50;68.00;;;;;;5025811;28;20079;-58
2022/08/24 05:48:52;;;;;;;1.25;0.80;;;23.40;68.00;;;;;;5020537;28;20504;-58
2022/08/24 05:51:18;;;;;;;1.60;0.90;;;23.40;67.90;;;;;;5026106;28;20030;-58
2022/08/24 05:53:43;;;;;;;1.25;0.88;;;23.40;68.00;;;;;;5028638;28;20037;-58
2022/08/24 05:56:11;;;;;;;1.23;0.95;;;23.40;68.00;;;;;;5024690;28;20029;-58
2022/08/24 05:58:37;;;;;;;1.15;0.90;;;23.40;68.00;;;;;;5022874;28;20374;-58
2022/08/24 06:01:22;;;;;;;3.15;1.00;;;23.40;68.00;;;;;;5025827;28;20537;-58
2022/08/24 06:03:48;;;;;;;1.75;0.85;;;23.40;68.00;;;;;;5025488;28;20032;-58
2022/08/24 06:06:15;;;;;;;1.73;0.93;;;23.40;68.00;;;;;;5025965;28;20037;-58
2022/08/24 06:08:42;;;;;;;2.55;1.08;;;23.40;68.00;;;;;;5024350;28;20021;-58
2022/08/24 06:11:08;;;;;;;1.15;0.77;;;23.40;68.00;;;;;;5025459;28;20025;-58
2022/08/24 06:13:33;;;;;;;1.13;0.80;;;23.40;68.00;;;;;;5025374;28;20021;-59
2022/08/24 06:16:07;;;;;;;1.60;0.90;;;23.40;68.00;;;;;;5025297;28;20045;-58
2022/08/24 06:18:33;;;;;;;2.03;0.85;;;23.40;68.00;;;;;;5024888;28;20139;-59
2022/08/24 06:21:04;;;;;;;1.05;0.77;;;23.40;68.00;;;;;;5026322;28;20052;-58
2022/08/24 06:23:30;;;;;;;1.08;0.80;;;23.40;68.00;;;;;;5024336;28;20038;-58
2022/08/24 06:28:41;;;;;;;0.73;0.73;;;23.30;67.90;;;;;;5026073;28;20111;-58
2022/08/24 06:31:07;;;;;;;1.50;0.82;;;23.30;67.90;;;;;;5026054;28;20537;-59
2022/08/24 06:33:33;;;;;;;1.23;1.00;;;23.30;68.00;;;;;;5026306;28;20087;-58
2022/08/24 06:35:58;;;;;;;3.15;0.82;;;23.30;67.90;;;;;;5025587;28;20500;-58
2022/08/24 06:38:24;;;;;;;1.10;0.80;;;23.30;67.90;;;;;;5024964;28;20084;-58
2022/08/24 06:40:50;;;;;;;1.95;0.75;;;23.30;67.90;;;;;;5027653;28;20025;-58
2022/08/24 06:43:16;;;;;;;1.55;0.80;;;23.30;67.90;;;;;;5027961;28;20037;-58
2022/08/24 06:45:42;;;;;;;1.23;0.70;;;23.30;67.90;;;;;;5024687;28;20053;-58
2022/08/24 06:48:07;;;;;;;2.00;0.98;;;23.30;67.90;;;;;;5019235;28;20116;-58
2022/08/24 06:50:33;;;;;;;2.03;1.05;;;23.30;67.90;;;;;;5017409;28;20116;-58
2022/08/24 06:53:00;;;;;;;3.70;1.20;;;23.20;66.90;;;;;;5022960;28;20564;-59
2022/08/24 06:55:26;;;;;;;2.45;1.05;;;23.10;66.50;;;;;;5020713;28;20037;-58
2022/08/24 06:57:52;;;;;;;3.60;1.13;;;23.10;66.40;;;;;;5019989;28;20025;-59
2022/08/24 07:00:18;;;;;;;3.58;1.17;;;23.10;66.10;;;;;;5023272;28;20060;-58
2022/08/24 07:02:43;;;;;;;2.55;1.15;;;23.10;66.40;;;;;;5024519;28;20579;-58
2022/08/24 07:05:09;;;;;;;1.73;1.15;;;23.10;66.50;;;;;;5028559;28;20406;-58
2022/08/24 07:07:35;;;;;;;5.28;1.50;;;23.10;66.40;;;;;;5028471;28;20036;-58
2022/08/24 07:10:00;;;;;;;3.72;1.15;;;23.00;66.50;;;;;;5028150;28;20151;-58
2022/08/24 07:12:26;;;;;;;3.72;1.27;;;23.00;66.50;;;;;;5028831;28;20021;-58
2022/08/24 07:14:52;;;;;;;3.72;0.95;;;23.00;66.60;;;;;;5028637;28;20040;-59
2022/08/24 07:17:18;;;;;;;4.00;1.10;;;22.90;66.70;;;;;;5027492;28;20025;-58
2022/08/24 07:19:44;;;;;;;3.97;0.88;;;22.90;66.80;;;;;;5029005;28;20033;-58
2022/08/24 07:22:12;;;;;;;4.32;1.10;;;22.90;66.90;;;;;;5026643;28;20642;-58
2022/08/24 07:24:38;;;;;;;3.35;1.23;;;22.90;67.00;;;;;;5029464;28;20397;-58
2022/08/24 07:27:04;;;;;;;3.17;1.20;;;22.90;67.10;;;;;;5027030;28;20033;-58
2022/08/24 07:29:30;;;;;;;3.17;1.02;;;22.90;67.20;;;;;;5028833;28;20037;-58
2022/08/24 07:31:56;;;;;;;3.42;1.20;;;22.90;67.20;;;;;;5024944;28;20052;-58
2022/08/24 07:34:22;;;;;;;3.38;0.93;;;22.90;67.20;;;;;;5024243;28;20410;-58
2022/08/24 07:36:49;;;;;;;1.80;0.90;;;23.00;67.40;;;;;;5028835;28;20036;-58
2022/08/24 07:39:15;;;;;;;2.22;1.00;;;23.00;67.70;;;;;;5027038;28;20509;-58
2022/08/24 07:41:42;;;;;;;5.00;1.20;;;23.00;67.80;;;;;;5024322;28;20035;-58
2022/08/24 07:44:08;;;;;;;4.47;1.05;;;23.00;68.00;;;;;;5020684;28;20632;-58
2022/08/24 07:46:34;;;;;;;2.20;1.05;;;23.00;68.10;;;;;;5024158;28;20498;-58
2022/08/24 07:49:00;;;;;;;2.95;1.10;;;22.90;68.40;;;;;;5026321;28;20043;-58
2022/08/24 07:51:26;;;;;;;3.90;1.00;;;22.90;68.60;;;;;;5024207;28;20030;-58
2022/08/24 07:53:52;;;;;;;3.58;1.20;;;22.90;68.70;;;;;;5021630;28;20116;-58
2022/08/24 07:56:17;;;;;;;3.42;1.00;;;22.90;69.00;;;;;;5025686;28;20105;-59
2022/08/24 07:58:44;;;;;;;2.10;1.00;;;23.00;68.80;;;;;;5025924;28;20402;-58
2022/08/24 08:01:10;;;;;;;4.18;1.17;;;23.00;68.80;;;;;;5024815;28;20112;-59
2022/08/24 08:03:36;;;;;;;4.53;1.10;;;23.00;69.00;;;;;;5025530;28;20116;-58
2022/08/24 08:06:06;;;;;;;4.22;1.10;;;23.00;69.10;;;;;;5026948;28;20021;-58
2022/08/24 08:08:34;;;;;;;7.68;1.20;;;23.00;69.20;;;;;;5027548;28;20021;-58
2022/08/24 08:11:01;;;;;;;6.85;1.17;;;23.00;69.10;;;;;;5021865;28;20472;-58
2022/08/24 08:13:29;;;;;;;5.13;1.10;;;23.00;69.20;;;;;;5025146;28;20037;-58
2022/08/24 08:15:55;;;;;;;4.68;1.00;;;23.10;69.30;;;;;;5026923;28;20072;-58
2022/08/24 08:18:21;;;;;;;1.88;0.88;;;23.10;69.20;;;;;;5025270;28;20025;-58
2022/08/24 08:20:47;;;;;;;2.80;0.82;;;23.10;69.30;;;;;;5027350;28;20044;-58
2022/08/24 08:25:58;;;;;;;3.60;0.70;;;23.10;69.00;;;;;;5028330;28;20037;-58
2022/08/24 08:28:24;;;;;;;3.75;0.80;;;23.10;69.00;;;;;;5028819;28;20044;-58
2022/08/24 08:30:51;;;;;;;2.83;0.70;;;23.20;69.10;;;;;;5027868;28;20033;-58
2022/08/24 08:33:17;;;;;;;1.38;0.55;;;23.20;69.00;;;;;;5028330;28;20025;-58
2022/08/24 08:35:43;;;;;;;0.75;0.30;;;23.20;69.70;;;;;;5025729;28;21572;-58
2022/08/24 08:38:09;;;;;;;1.52;0.50;;;23.20;68.60;;;;;;5026343;28;20651;-58
2022/08/24 08:40:44;;;;;;;1.80;0.45;;;23.30;68.70;;;;;;5028533;28;20097;-58
2022/08/24 08:43:40;;;;;;;4.05;0.90;;;23.30;68.70;;;;;;5025263;28;20059;-58
2022/08/24 08:46:54;;;;;;;3.17;0.85;;;23.30;68.90;;;;;;5022915;28;20034;-58
2022/08/24 08:49:24;;;;;;;1.95;0.75;;;23.30;69.00;;;;;;5010256;28;20049;-58
2022/08/24 08:52:10;;;;;;;4.45;0.40;;;23.30;69.00;;;;;;5025534;28;20046;-57
2022/08/24 08:54:55;;;;;;;0.82;0.35;;;23.30;69.00;;;;;;5024839;28;20474;-58
2022/08/24 08:57:55;;;;;;;1.20;0.40;;;23.20;68.90;;;;;;5017344;28;20414;-58
2022/08/24 09:00:26;;;;;;;2.30;0.68;;;23.20;69.10;;;;;;5024221;28;20048;-58
2022/08/24 09:03:13;;;;;;;4.13;0.75;;;23.20;69.10;;;;;;5021566;28;20040;-58
2022/08/24 09:05:57;;;;;;;3.10;0.70;;;23.30;69.10;;;;;;5021038;28;20579;-58
2022/08/24 09:08:33;;;;;;;1.20;0.50;;;23.40;69.40;;;;;;5025086;28;20552;-58
2022/08/24 09:11:14;;;;;;;4.30;0.73;;;23.40;69.20;;;;;;5029436;28;20045;-58
2022/08/24 09:13:45;;;;;;;2.25;0.70;;;23.40;69.30;;;;;;5026360;28;20037;-57
2022/08/24 09:16:23;;;;;;;1.08;0.40;;;23.40;69.10;;;;;;5024247;28;20038;-58
2022/08/24 09:19:13;;;;;;;3.97;0.50;;;23.40;69.10;;;;;;5025252;28;20067;-58
2022/08/24 09:22:14;;;;;;;2.42;0.60;;;23.50;69.00;;;;;;5025618;28;20025;-58
2022/08/24 09:24:49;;;;;;;4.22;0.85;;;23.50;68.90;;;;;;5025593;28;20038;-57
2022/08/24 09:27:53;;;;;;;1.40;0.40;;;23.50;68.90;;;;;;5024764;28;20087;-58
2022/08/24 09:30:26;;;;;;;7.63;0.57;;;23.60;68.80;;;;;;5025466;28;20021;-58
2022/08/24 09:33:19;;;;;;;0.73;0.43;;;23.60;68.40;;;;;;5026234;28;20022;-58
2022/08/24 09:35:59;;;;;;;1.25;0.43;;;23.60;68.60;;;;;;5024127;28;20071;-58
2022/08/24 09:38:37;;;;;;;1.85;0.40;;;23.60;68.60;;;;;;5026592;28;20025;-58
2022/08/24 09:41:18;;;;;;;1.13;0.47;;;23.70;68.60;;;;;;5030546;28;20029;-58
2022/08/24 09:44:05;;;;;;;1.08;0.50;;;23.70;68.50;;;;;;5026135;28;20808;-59
2022/08/24 09:47:15;;;;;;;1.25;0.40;;;23.70;68.30;;;;;;5025342;28;20421;-59
2022/08/24 09:50:10;;;;;;;1.17;0.40;;;23.70;68.10;;;;;;4998800;28;20033;-59
2022/08/24 09:52:53;;;;;;;1.17;0.40;;;23.80;68.30;;;;;;4906061;29;20048;-59
2022/08/24 09:55:25;;;;;;;1.45;0.50;;;23.80;68.20;;;;;;4907319;29;20082;-59
2022/08/24 09:58:42;;;;;;;1.15;0.30;;;23.80;68.10;;;;;;4905574;29;20044;-59
2022/08/24 10:01:26;;;;;;;;;;;23.80;68.00;;;;;;4869561;29;20036;-59
2022/08/24 10:04:07;;;;;;;0.93;0.40;;;23.80;67.70;;;;;;4866484;29;20418;-58
2022/08/24 10:06:37;;;;;;;0.47;0.28;;;23.80;67.90;;;;;;4865879;29;20065;-59
2022/08/24 10:09:21;;;;;;;2.00;0.50;;;23.80;67.90;;;;;;4854147;29;20781;-58
2022/08/24 10:12:12;;;;;;;1.70;0.60;;;23.80;67.90;;;;;;4868097;29;20047;-58
2022/08/24 10:15:01;;;;;;;1.85;0.38;;;23.80;68.10;;;;;;4870230;29;20751;-58
2022/08/24 10:17:47;;;;;;;3.05;0.60;;;23.80;67.80;;;;;;4867708;29;20037;-58
2022/08/24 10:20:49;;;;;;;2.30;0.70;;;23.90;68.20;;;;;;4870135;29;20530;-58
2022/08/24 10:23:53;;;;;;;0.98;0.40;;;23.90;68.10;;;;;;4880379;29;20055;-58
2022/08/24 10:26:35;;;;;;;4.50;0.63;;;24.00;68.10;;;;;;4906471;29;20088;-58
2022/08/24 10:29:07;;;;;;;1.30;0.40;;;24.00;67.80;;;;;;4926356;28;20026;-58
2022/08/24 10:31:38;;;;;;;2.78;0.50;;;24.00;67.90;;;;;;4984272;28;20057;-58
2022/08/24 10:34:32;;;;;;;2.72;0.55;;;24.10;68.00;;;;;;4984584;28;20026;-58
2022/08/24 10:37:10;;;;;;;3.35;0.75;;;24.10;68.00;;;;;;5049118;28;20562;-58
2022/08/24 10:39:57;;;;;;;1.60;0.50;;;24.10;67.90;;;;;;5028421;28;20029;-58
2022/08/24 10:45:43;;;;;;;3.63;0.60;;;24.10;68.00;;;;;;5028984;28;20052;-58
2022/08/24 10:48:30;;;;;;;1.77;0.40;;;24.10;67.90;;;;;;5028299;28;20581;-58
2022/08/24 10:51:02;;;;;;;0.85;0.52;;;24.10;69.10;;;;;;5029520;28;20025;-58
2022/08/24 10:53:29;;;;;;;1.92;0.60;;;24.10;68.00;;;;;;5025104;28;20052;-56
2022/08/24 10:56:11;;;;;;;2.45;0.60;;;24.20;67.70;;;;;;5029169;28;20096;-56
2022/08/24 10:58:37;;;;;;;1.30;0.60;;;24.10;67.60;;;;;;5027169;28;20029;-56
2022/08/24 11:01:27;;;;;;;2.95;0.60;;;24.20;67.90;;;;;;5029753;28;20061;-56
2022/08/24 11:03:56;;;;;;;2.30;0.55;;;24.20;67.60;;;;;;5028963;28;20024;-56
2022/08/24 11:06:22;;;;;;;1.15;0.50;;;24.20;67.60;;;;;;5027658;28;20029;-56
2022/08/24 11:08:54;;;;;;;7.70;1.17;;;24.30;67.60;;;;;;5028007;28;20022;-56
2022/08/24 11:11:47;;;;;;;5.40;0.90;;;24.30;67.90;;;;;;5029445;28;20034;-55
2022/08/24 11:14:15;;;;;;;2.80;0.57;;;24.20;67.20;;;;;;5025587;28;20502;-56
2022/08/24 11:16:43;;;;;;;4.68;0.77;;;24.30;67.20;;;;;;5027573;28;20129;-56
2022/08/24 11:19:31;;;;;;;3.28;0.75;;;24.30;66.80;;;;;;5023776;28;20144;-56
2022/08/24 11:22:19;;;;;;;4.05;0.80;;;24.30;67.00;;;;;;5026096;28;20036;-55
2022/08/24 11:24:45;;;;;;;3.10;0.70;;;24.30;67.70;;;;;;5033643;28;20038;-56
2022/08/24 11:27:27;;;;;;;3.35;0.80;;;24.40;67.50;;;;;;5024696;28;20071;-60
2022/08/24 11:29:55;;;;;;;2.40;0.60;;;24.40;67.60;;;;;;5025295;28;20037;-60
2022/08/24 11:32:45;;;;;;;4.00;0.85;;;24.50;67.30;;;;;;5025094;28;20029;-60
2022/08/24 11:35:15;;;;;;;3.45;0.98;;;24.50;67.30;;;;;;5020971;28;20051;-60
2022/08/24 11:37:41;;;;;;;3.25;0.70;;;24.50;67.10;;;;;;5025542;28;20040;-61
2022/08/24 11:40:07;;;;;;;2.58;0.70;;;24.60;67.50;;;;;;5024116;28;20037;-60
2022/08/24 11:42:40;;;;;;;2.88;0.70;;;24.60;67.80;;;;;;5027076;28;20029;-60
2022/08/24 11:45:18;;;;;;;4.93;0.95;;;24.60;67.70;;;;;;5023982;28;20057;-60
2022/08/24 11:48:02;;;;;;;4.95;1.13;;;24.70;67.90;;;;;;5025726;28;20497;-60
2022/08/24 11:50:40;;;;;;;2.95;1.00;;;24.70;67.90;;;;;;5024260;28;20025;-60
2022/08/24 11:53:37;;;;;;;5.43;1.10;;;24.70;66.50;;;;;;5028084;28;20053;-60
2022/08/24 11:56:16;;;;;;;5.45;0.70;;;24.80;67.90;;;;;;5010593;28;20622;-60
2022/08/24 11:59:00;;;;;;;1.98;0.70;;;24.80;66.20;;;;;;5025563;28;20025;-59
2022/08/24 12:01:38;;;;;;;5.30;0.90;;;24.80;66.30;;;;;;5025423;28;20029;-60
2022/08/24 12:04:31;;;;;;;5.28;0.90;;;24.80;66.50;;;;;;5027209;28;20025;-60
2022/08/24 12:07:14;;;;;;;5.30;0.90;;;24.90;66.50;;;;;;5026336;28;20497;-60
2022/08/24 12:09:53;;;;;;;1.05;0.70;;;24.90;66.40;;;;;;5025922;28;20018;-60
2022/08/24 12:12:47;;;;;;;1.42;0.60;;;25.00;66.10;;;;;;5024746;28;20570;-60
2022/08/24 12:16:07;;;;;;;2.72;0.60;;;24.90;65.40;;;;;;5020374;28;20041;-60
2022/08/24 12:18:38;;;;;;;2.42;0.70;;;24.90;65.60;;;;;;4982432;28;20069;-60
2022/08/24 12:21:05;;;;;;;2.58;0.73;;;25.00;65.60;;;;;;4980944;28;20558;-60
2022/08/24 12:24:14;;;;;;;3.95;1.10;;;25.00;65.20;;;;;;4968758;28;20053;-60
2022/08/24 12:26:50;;;;;;;2.92;0.80;;;25.00;64.90;;;;;;4881354;29;20047;-62
2022/08/24 12:29:22;;;;;;;3.90;0.85;;;25.00;64.80;;;;;;4876319;29;20028;-60
2022/08/24 12:31:54;;;;;;;2.78;0.80;;;25.00;65.40;;;;;;4892650;29;20033;-59
2022/08/24 12:34:24;;;;;;;2.47;0.80;;;24.90;65.10;;;;;;4880940;29;20048;-61
2022/08/24 12:37:14;;;;;;;3.50;0.80;;;24.90;64.50;;;;;;4892611;29;20028;-61
2022/08/24 12:40:10;;;;;;;3.05;0.60;;;24.90;64.30;;;;;;4881846;29;20048;-60
2022/08/24 12:42:46;;;;;;;2.20;0.60;;;24.90;64.70;;;;;;4893139;29;20032;-60
2022/08/24 12:45:16;;;;;;;4.38;0.80;;;25.00;64.60;;;;;;4891809;29;20053;-60
2022/08/24 12:47:52;;;;;;;2.90;0.77;;;25.00;64.40;;;;;;4891224;29;20044;-60
2022/08/24 12:50:24;;;;;;;3.42;0.85;;;25.00;64.40;;;;;;4880185;29;20047;-60
2022/08/24 12:53:02;;;;;;;4.82;1.13;;;25.10;64.20;;;;;;4925606;28;20182;-61
2022/08/24 12:55:49;;;;;;;4.00;0.82;;;25.10;64.10;;;;;;4946635;28;20456;-60
2022/08/24 12:58:52;;;;;;;4.03;0.80;;;25.20;63.60;;;;;;5011539;28;20505;-60
2022/08/24 13:01:18;;;;;;;2.97;0.70;;;25.20;63.80;;;;;;5022873;28;20132;-60
2022/08/24 13:03:46;;;;;;;8.43;1.20;;;25.20;63.50;;;;;;5020330;28;20078;-60
2022/08/24 13:06:26;;;;;;;3.15;0.80;;;25.20;63.60;;;;;;5025753;28;20025;-59
2022/08/24 13:08:52;;;;;;;5.40;0.93;;;25.20;63.50;;;;;;5022784;28;20038;-60
2022/08/24 13:11:28;;;;;;;5.78;0.98;;;25.30;63.90;;;;;;5027175;28;20094;-60
2022/08/24 13:13:53;;;;;;;4.82;0.98;;;25.30;63.30;;;;;;5027005;28;20037;-60
2022/08/24 13:16:44;;;;;;;5.50;1.00;;;25.30;63.20;;;;;;5025589;28;20417;-60
2022/08/24 13:19:21;;;;;;;5.10;1.00;;;25.30;63.10;;;;;;5026130;28;20129;-59
2022/08/24 13:21:57;;;;;;;3.35;0.90;;;25.30;63.10;;;;;;5022288;28;20551;-59
2022/08/24 13:24:29;;;;;;;1.52;0.55;;;25.40;63.10;;;;;;5025958;28;20029;-60